createdAt,value
2019-02-14T00:00:35.131Z,5.13
2019-02-14T00:05:53.789Z,5.27
2019-02-14T00:11:12.379Z,4.93
2019-02-14T00:16:31.016Z,5.17
2019-02-14T00:21:49.520Z,5.97
2019-02-14T00:27:08.099Z,5.70
2019-02-14T00:32:26.761Z,5.50
2019-02-14T00:37:45.492Z,5.70
2019-02-14T00:43:04.138Z,6.23
2019-02-14T00:48:22.774Z,5.43
2019-02-14T00:53:41.266Z,5.47
2019-02-14T00:58:59.954Z,5.80
2019-02-14T01:04:18.645Z,5.90
2019-02-14T01:09:37.595Z,5.35
2019-02-14T01:14:56.165Z,5.90
2019-02-14T01:20:14.833Z,5.97
2019-02-14T01:25:33.417Z,5.63
2019-02-14T01:30:52.051Z,6.03
2019-02-14T01:36:10.699Z,6.20
2019-02-14T01:41:29.293Z,6.35
2019-02-14T01:46:47.912Z,5.57
2019-02-14T01:52:06.567Z,5.83
2019-02-14T01:57:25.228Z,6.37
2019-02-14T02:02:43.876Z,5.57
2019-02-14T02:08:02.505Z,5.63
2019-02-14T02:13:21.068Z,5.33
2019-02-14T02:18:40.180Z,5.20
2019-02-14T02:23:58.755Z,5.70
2019-02-14T02:29:17.792Z,5.63
2019-02-14T02:34:36.430Z,5.03
2019-02-14T02:39:55.056Z,4.97
2019-02-14T02:45:13.953Z,5.67
2019-02-14T02:50:32.597Z,5.17
2019-02-14T02:55:51.242Z,5.00
2019-02-14T03:01:09.857Z,4.93
2019-02-14T03:06:28.511Z,4.53
2019-02-14T03:11:47.096Z,5.03
2019-02-14T03:17:05.678Z,5.20
2019-02-14T03:22:24.310Z,4.77
2019-02-14T03:27:43.022Z,5.00
2019-02-14T03:33:01.571Z,4.47
2019-02-14T03:38:20.167Z,5.13
2019-02-14T03:43:38.740Z,4.37
2019-02-14T03:48:57.333Z,4.80
2019-02-14T03:54:15.969Z,4.77
2019-02-14T03:59:34.863Z,4.33
2019-02-14T04:04:53.494Z,5.47
2019-02-14T04:10:15.730Z,4.70
2019-02-14T04:15:34.293Z,4.93
2019-02-14T04:20:52.863Z,4.27
2019-02-14T04:26:11.418Z,4.42
2019-02-14T04:31:29.988Z,4.53
2019-02-14T04:36:48.636Z,5.30
2019-02-14T04:42:07.506Z,4.27
2019-02-14T04:47:26.011Z,5.20
2019-02-14T04:52:44.654Z,4.73
2019-02-14T04:58:03.300Z,4.75
2019-02-14T05:03:21.855Z,4.43
2019-02-14T05:08:40.485Z,4.73
2019-02-14T05:13:59.170Z,5.47
2019-02-14T05:19:17.990Z,5.33
2019-02-14T05:24:38.106Z,5.03
2019-02-14T05:29:56.682Z,5.20
2019-02-14T05:35:15.307Z,4.97
2019-02-14T05:40:33.931Z,5.10
2019-02-14T05:45:52.844Z,4.97
2019-02-14T05:51:11.953Z,4.47
2019-02-14T05:56:30.539Z,4.40
2019-02-14T06:01:50.648Z,4.30
2019-02-14T06:07:09.286Z,3.70
2019-02-14T06:12:28.063Z,3.60
2019-02-14T06:17:49.686Z,5.40
2019-02-14T06:23:08.226Z,3.80
2019-02-14T06:28:29.938Z,3.73
2019-02-14T06:33:48.823Z,3.60
2019-02-14T06:39:10.207Z,3.97
2019-02-14T06:44:28.910Z,4.97
2019-02-14T06:49:51.578Z,4.60
2019-02-14T06:55:10.500Z,4.67
2019-02-14T07:00:29.112Z,4.77
2019-02-14T07:05:52.004Z,4.87
2019-02-14T07:11:10.754Z,4.23
2019-02-14T07:16:29.244Z,4.80
2019-02-14T07:21:47.718Z,5.20
2019-02-14T07:27:06.363Z,5.00
2019-02-14T07:32:25.006Z,4.37
2019-02-14T07:37:43.552Z,4.83
2019-02-14T07:43:02.248Z,3.63
2019-02-14T07:48:20.871Z,4.10
2019-02-14T07:53:39.412Z,3.60
2019-02-14T07:58:57.885Z,3.90
2019-02-14T08:04:16.501Z,3.37
2019-02-14T08:09:35.405Z,3.60
2019-02-14T08:14:53.955Z,2.87
2019-02-14T08:20:15.006Z,3.62
2019-02-14T08:25:33.605Z,3.27
2019-02-14T08:30:52.143Z,3.83
2019-02-14T08:36:10.771Z,3.80
2019-02-14T08:41:29.312Z,3.50
2019-02-14T08:46:47.888Z,3.23
2019-02-14T08:52:06.495Z,3.50
2019-02-14T08:57:25.125Z,3.47
2019-02-14T09:02:43.744Z,3.30
2019-02-14T09:08:02.381Z,3.17
2019-02-14T09:13:21.030Z,3.33
2019-02-14T09:18:39.589Z,3.43
2019-02-14T09:23:58.406Z,2.83
2019-02-14T09:29:16.877Z,2.97
2019-02-14T09:34:35.432Z,2.67
2019-02-14T09:39:53.969Z,3.10
2019-02-14T09:45:13.910Z,2.77
2019-02-14T09:50:32.462Z,3.00
2019-02-14T09:55:51.003Z,2.50
2019-02-14T10:01:09.553Z,2.60
2019-02-14T10:06:36.311Z,2.50
2019-02-14T10:11:48.544Z,2.90
2019-02-14T10:17:07.416Z,3.20
2019-02-14T10:22:25.956Z,2.67
2019-02-14T10:27:44.581Z,2.43
2019-02-14T10:33:03.493Z,2.30
2019-02-14T10:38:22.799Z,2.50
2019-02-14T10:43:48.653Z,3.60
2019-02-14T10:49:01.950Z,2.77
2019-02-14T10:54:20.514Z,2.40
2019-02-14T10:59:39.151Z,2.00
2019-02-14T11:04:57.768Z,2.30
2019-02-14T11:10:16.684Z,1.87
2019-02-14T11:15:35.413Z,1.90
2019-02-14T11:20:53.961Z,2.10
2019-02-14T11:26:12.660Z,2.07
2019-02-14T11:31:31.223Z,2.00
2019-02-14T11:36:49.795Z,1.90
2019-02-14T11:42:08.419Z,0.97
2019-02-14T11:47:26.981Z,1.27
2019-02-14T11:52:45.578Z,1.20
2019-02-14T11:58:04.227Z,1.07
2019-02-14T12:03:22.867Z,0.93
2019-02-14T12:08:53.033Z,1.00
2019-02-14T12:14:01.751Z,1.10
2019-02-14T12:19:20.309Z,1.30
2019-02-14T12:24:38.855Z,1.50
2019-02-14T12:29:57.436Z,1.00
2019-02-14T12:35:15.966Z,1.52
2019-02-14T12:40:34.572Z,1.23
2019-02-14T12:45:53.393Z,1.00
2019-02-14T12:51:12.024Z,1.10
2019-02-14T12:56:30.672Z,0.80
2019-02-14T13:01:49.317Z,1.07
2019-02-14T13:07:07.973Z,1.10
2019-02-14T13:12:26.625Z,1.10
2019-02-14T13:17:45.250Z,0.90
2019-02-14T13:23:04.167Z,0.83
2019-02-14T13:28:22.877Z,0.93
2019-02-14T13:33:41.860Z,1.00
2019-02-14T13:39:00.497Z,1.10
2019-02-14T13:44:19.031Z,1.00
2019-02-14T13:49:37.595Z,1.00
2019-02-14T13:54:56.072Z,1.00
2019-02-14T14:00:30.373Z,1.12
2019-02-14T14:05:55.129Z,0.97
2019-02-14T14:11:16.188Z,1.00
2019-02-14T14:16:34.754Z,0.90
2019-02-14T14:21:54.955Z,0.90
2019-02-14T14:27:13.524Z,1.17
2019-02-14T14:32:32.089Z,1.07
2019-02-14T14:37:50.583Z,0.90
2019-02-14T14:43:10.778Z,1.23
2019-02-14T14:48:31.053Z,1.07
2019-02-14T14:53:49.682Z,1.20
2019-02-14T14:59:08.248Z,1.20
2019-02-14T15:04:26.736Z,1.00
2019-02-14T15:09:46.912Z,0.97
2019-02-14T15:15:07.034Z,0.73
2019-02-14T15:20:25.607Z,1.00
2019-02-14T15:25:44.254Z,0.90
2019-02-14T15:31:03.016Z,1.00
2019-02-14T15:36:23.784Z,1.37
2019-02-14T15:41:42.032Z,1.13
2019-02-14T15:47:00.705Z,1.00
2019-02-14T15:52:20.708Z,1.37
2019-02-14T15:57:42.254Z,1.30
2019-02-14T16:03:00.503Z,1.23
2019-02-14T16:08:19.697Z,1.20
2019-02-14T16:13:44.818Z,1.53
2019-02-14T16:19:03.448Z,1.00
2019-02-14T16:24:21.983Z,1.10
2019-02-14T16:29:40.663Z,1.50
2019-02-14T16:34:59.306Z,1.47
2019-02-14T16:40:27.867Z,1.50
2019-02-14T16:45:42.910Z,1.60
2019-02-14T16:51:01.368Z,1.87
2019-02-14T16:56:19.980Z,1.60
2019-02-14T17:01:38.537Z,1.60
2019-02-14T17:06:57.146Z,1.60
2019-02-14T17:12:17.514Z,1.67
2019-02-14T17:17:39.278Z,1.67
2019-02-14T17:22:57.897Z,1.70
2019-02-14T17:28:16.431Z,1.50
2019-02-14T17:33:35.018Z,1.37
2019-02-14T17:38:53.560Z,2.40
2019-02-14T17:44:12.092Z,2.00
2019-02-14T17:49:30.709Z,1.90
2019-02-14T17:54:49.586Z,3.00
2019-02-14T18:00:11.513Z,2.57
2019-02-14T18:05:30.060Z,2.20
2019-02-14T18:10:54.783Z,2.20
2019-02-14T18:16:09.207Z,2.10
2019-02-14T18:21:27.824Z,2.50
2019-02-14T18:26:46.743Z,2.45
2019-02-14T18:32:05.372Z,3.23
2019-02-14T18:37:23.843Z,3.23
2019-02-14T18:42:44.691Z,3.13
2019-02-14T18:48:03.368Z,2.40
2019-02-14T18:53:25.052Z,2.57
2019-02-14T18:58:43.547Z,2.60
2019-02-14T19:04:02.173Z,3.20
2019-02-14T19:09:20.791Z,3.30
2019-02-14T19:14:39.335Z,3.42
2019-02-14T19:19:58.151Z,2.43
2019-02-14T19:25:17.050Z,2.45
2019-02-14T19:30:35.675Z,2.80
2019-02-14T19:35:54.252Z,2.50
2019-02-14T19:41:12.742Z,2.37
2019-02-14T19:46:31.438Z,2.87
2019-02-14T19:51:49.921Z,2.10
2019-02-14T19:57:08.533Z,2.50
2019-02-14T20:02:29.156Z,2.53
2019-02-14T20:07:47.791Z,2.17
2019-02-14T20:13:06.421Z,1.82
2019-02-14T20:18:25.039Z,1.80
2019-02-14T20:23:44.520Z,2.70
2019-02-14T20:29:03.066Z,2.70
2019-02-14T20:34:25.921Z,2.20
2019-02-14T20:39:44.447Z,2.03
2019-02-14T20:45:03.179Z,2.10
2019-02-14T20:50:21.772Z,2.07
2019-02-14T20:55:41.765Z,2.07
2019-02-14T21:01:01.244Z,2.97
2019-02-14T21:06:19.860Z,3.10
2019-02-14T21:11:38.497Z,2.33
2019-02-14T21:16:57.048Z,2.70
2019-02-14T21:22:18.556Z,2.40
2019-02-14T21:27:36.010Z,2.33
2019-02-14T21:32:54.662Z,2.30
2019-02-14T21:38:35.407Z,2.00
2019-02-14T21:43:53.991Z,2.20
2019-02-14T21:49:12.681Z,2.07
2019-02-14T21:54:31.220Z,2.10
2019-02-14T21:59:49.768Z,2.87
2019-02-14T22:05:09.991Z,2.02
2019-02-14T22:10:28.692Z,2.10
2019-02-14T22:15:47.361Z,2.70
2019-02-14T22:21:06.011Z,2.63
2019-02-14T22:26:24.642Z,2.67
2019-02-14T22:31:43.178Z,1.97
2019-02-14T22:37:01.718Z,2.13
2019-02-14T22:42:21.165Z,1.90
2019-02-14T22:47:41.613Z,2.07
2019-02-14T22:53:00.361Z,2.00
2019-02-14T22:58:18.902Z,1.93
2019-02-14T23:03:37.554Z,1.93
2019-02-14T23:08:56.197Z,2.37
2019-02-14T23:14:14.810Z,1.83
2019-02-14T23:19:33.434Z,1.70
2019-02-14T23:24:52.062Z,1.53
2019-02-14T23:30:12.266Z,1.98
2019-02-14T23:35:30.987Z,1.60
2019-02-14T23:40:49.722Z,1.70
2019-02-14T23:46:08.825Z,1.70
2019-02-14T23:51:27.446Z,1.70
2019-02-14T23:56:45.983Z,1.80
